Aktualne dane pomiarowe

Uwaga, wersja testowa! Automatyczne pobieranie danych za pomocą narzędzi lub skryptów to umożliwiających jest zabronione.

Dane meteo z obszaru Polski uzyskane na podstawie depesz SYNOP pobieranych co godzinę z NWS. Najedź myszką na symbol przedstawiony w tabeli, aby uzyskać informacje co do jego znaczenia. Prosimy pamiętać, że to testowa wersja strony, która jeszcze nie jest ukończona. Stworzono również jest krótki FAQ dotyczący korzystania z tej podstrony Anomalie temperatury w chwili obecnej odniesione są do okresu referencyjnego 1951-2016. Okres ten będzie później zmieniony na 1981-2010. Kliknij ikonę aby pobrać plik CSV. Kliknij ikonę aby wygenerować mapę synoptyczną dla danego terminu.

Wybierz Datę:    

        

Sandomierz (12585)

Dane terminowe dla wybranej stacji. Kliknij datę, aby otrzymać dane z tego terminu dla wszystkich stacji.

TemperaturaZachmurzenieWiatrCiśnienieOpadyPogoda
 Data t td wb tx tn tg rh  Nt Nl Cl Cm Ch ws wd g1 g2 wx mslp ppp ch 24h 12h t ww ww w1 w2  
2019-07-20 23:00:00 18.3 15.7 16.5--- 8522.0--3wx--31017.3 991.6 0.2---------
2019-07-20 22:00:00 19.2 15.7 16.8--- 8022.0--3wx--31017.3 991.6 0.6---------
2019-07-20 21:00:00 20.1 15.3 16.9--- 7425.0--1wx---1017.2 991.6 0.8---------
2019-07-20 20:00:00 21.4 15.2 17.3--- 6830.0--1wx--11016.9 991.4 0.5---------
2019-07-20 19:00:00 21.7 15.3 17.5--- 6727.0--1wx--11016.4 991.0 0.6---------
2019-07-20 18:00:00 23.5 15.8 18.4 28.2 18.0- 6229.0--2wx-721016.1 990.8 0.3- 0.012------
2019-07-20 17:00:00 24.5 15.1 18.4--- 5635.0--2wx--21016.1 990.9 0.1---------
2019-07-20 16:00:00 26.8 13.5 18.5--- 4445.0--2wx--21015.4 990.4 -0.7---------
2019-07-20 15:00:00 27.5 13.4 18.8--- 4230.0--3wx---1015.4 990.5 -1.0---------
2019-07-20 14:00:00 27.0 13.4 18.6--- 4330.0--2wx--21015.8 990.8 -1.0---------
2019-07-20 13:00:00 26.9 13.6 18.6--- 4430.0--3wx--31016.1 991.1 -0.9---------
2019-07-20 12:00:00 26.2 14.3 18.7--- 4826.0--2wx--21016.5 991.5 -0.6- 0.06------
2019-07-20 11:00:00 25.3 14.4 18.4--- 5130.0--3wx--31016.9 991.8 -0.4---------
2019-07-20 10:00:00 24.3 14.1 17.8--- 5330.0--2wx--21017.2 992.0 0.1---------
2019-07-20 09:00:00 23.3 14.6 17.7--- 5825.0--2wx--21017.4 992.1 0.3---------
2019-07-20 08:00:00 21.6 15.2 17.4--- 6727.0--2wx--21017.7 992.2 0.7---------
2019-07-20 07:00:00 20.9 15.7 17.4--- 7229.0--1wx--11017.4 991.9 0.8---------
2019-07-20 06:00:00 18.0 16.2 16.7 22.2 15.8 15 8913.0--1wx--11017.6 991.8 1.0 1.3 1.012----- 9.3
2019-07-20 05:00:00 16.1 15.1 15.4--- 9410.0--2wx---1017.4 991.5 0.6---wx-----
2019-07-20 04:00:00 15.8 15.0 15.2--- 957.0--2wx--21017.0 991.1 0.6---wx-----
2019-07-20 03:00:00 16.0 14.5 14.9--- 918.0--2wx--21016.7 990.8 0.2---wx-----
2019-07-20 02:00:00 16.1 13.4 14.2--- 8422.0--2wx--21016.8 990.9 0.4---wx-----
2019-07-20 01:00:00 17.2 12.9 14.4--- 7630.0--1wx--11016.3 990.5 0.0---------
2019-07-20 00:00:00 16.9 12.8 14.2--- 7729.0--2wx--21016.4 990.6 0.4- 0.06------
2019-07-19 23:00:00 16.8 12.5 14.0--- 7625.0--2wx---1016.3 990.5 0.5---------
2019-07-19 22:00:00 17.4 12.5 14.2--- 7330.0--2wx--21016.3 990.5 1.2---------
2019-07-19 21:00:00 19.0 12.5 14.9--- 6630.0--3wx--31015.8 990.2 1.1---------
2019-07-19 20:00:00 19.4 12.6 15.1--- 6535.0--3wx--31015.6 990.0 1.2---------
2019-07-19 19:00:00 21.1 12.0 15.5--- 5640.0--2wx--21014.7 989.3 0.6---------
2019-07-19 18:00:00 22.2 11.6 15.7 27.9 15.7- 5135.0--3wx--31014.4 989.1 0.7- 0.012------
2019-07-19 17:00:00 24.7 12.0 17.0--- 4540.0--2wx--21013.9 988.8 0.3---------
2019-07-19 16:00:00 24.7 11.6 16.8--- 4430.0--2wx--21013.8 988.7 0.0---------
2019-07-19 15:00:00 26.0 8.9 16.1--- 3440.0--3wx--31013.4 988.4 -0.7---------
2019-07-19 14:00:00 27.5 8.9 16.7--- 3135.0--2wx--21013.4 988.5 -0.9---------
2019-07-19 13:00:00 27.5 8.4 16.5--- 3030.0--3wx--31013.6 988.7 -0.8---------
2019-07-19 12:00:00 26.2 8.7 16.1--- 3330.0--2wx--21014.1 989.1 -0.5- 0.06------
2019-07-19 11:00:00 26.2 8.7 16.1--- 3330.0--4wx--41014.4 989.4 -0.3---------
2019-07-19 10:00:00 25.2 8.2 15.5--- 3429.0--4wx--41014.6 989.5 -0.2---------
2019-07-19 09:00:00 24.2 11.2 16.4--- 4424.0--4wx--41014.8 989.6 0.0---------
2019-07-19 08:00:00 22.1 12.9 16.3--- 5625.0--3wx--31015.0 989.7 0.3---------
2019-07-19 07:00:00 18.9 12.4 14.8--- 6628.0--3wx--31015.3 989.7 0.4---------
2019-07-19 06:00:00 15.7 11.5 13.0 20.9 11.7 10 7630.0--3wx--31015.5 989.6 0.3- 0.012----- 10.4
2019-07-19 05:00:00 12.8 10.2 11.1--- 8435.0--2wx--21015.6 989.4 0.2---------
2019-07-19 04:00:00 12.0 9.9 10.6--- 8722.0--1wx--11015.5 989.3 0.2---------
2019-07-19 03:00:00 12.4 9.8 10.7--- 8430.0--2wx--21015.5 989.3 0.2---------
2019-07-19 02:00:00 12.9 9.5 10.7--- 8030.0--2wx--21015.4 989.2 0.1---------
2019-07-19 01:00:00 13.2 9.4 10.8--- 7840.0--2wx--21015.2 989.1 0.0---------
2019-07-19 00:00:00 14.6 8.5 10.9--- 6750.0--2wx--21015.1 989.1 0.3- 0.06------
2.5 ms

 

Print Friendly, PDF & Email